General Aviation Weather

Text Reports

Enter one or more of the following location identifiers separated by a space:

Zip Code, Four-Character ICAO or Three-Character IATA airport codes.

METAR - Aviation Routine Weather Report
KREO - Rome, Oregon
Updated at 11:52 PM GMT on February 05, 2016 (3:52 PM PST):
METAR KREO 052352Z AUTO 14012KT 05/M02 A3040 RMK AO1 SLP312 T00501017 10078 20028 56011
TAF - Terminal Area Forecast
KREO - Rome, Oregon
Updated at 11:52 PM GMT on February 05, 2016 (3:52 PM PST):
No TAF is currently available for this location.
Decoded:
No decoded TAF is available.
PIREP - Pilot Weather Report
KREO - Rome, Oregon
Updated at 11:52 PM GMT on February 05, 2016 (3:52 PM PST):
No PIREP is currently available for this location.
AIRMET - Airmens Meteorological Information
KREO - Rome, Oregon
Updated at 11:52 PM GMT on February 05, 2016 (3:52 PM PST):
No AIRMET is currently available for this location.
SIGMET - Significant Meteorological Information
KREO - Rome, Oregon
Updated at 11:52 PM GMT on February 05, 2016 (3:52 PM PST):
No SIGMET is currently available for this location.
NOTAM - Notice to Airmen
KREO - Rome, Oregon
Updated at 11:52 PM GMT on February 05, 2016 (3:52 PM PST):
No NOTAM is currently available for this location.
Forecast Area
KREO - Rome, Oregon
Updated at 11:52 PM GMT on February 05, 2016 (3:52 PM PST):
No NOTAM is currently available for this location.
Aviation Weather Maps